createdAt,value
2018-12-10T00:00:04.808Z,1006.75
2018-12-10T00:00:45.224Z,1006.76
2018-12-10T00:01:25.653Z,1006.79
2018-12-10T00:02:06.038Z,1006.82
2018-12-10T00:02:46.496Z,1006.8
2018-12-10T00:03:26.821Z,1006.72
2018-12-10T00:04:07.238Z,1006.8
2018-12-10T00:04:47.682Z,1006.66
2018-12-10T00:05:28.056Z,1006.73
2018-12-10T00:06:08.439Z,1006.73
2018-12-10T00:06:48.826Z,1006.69
2018-12-10T00:07:29.235Z,1006.84
2018-12-10T00:08:09.585Z,1006.69
2018-12-10T00:08:50.027Z,1006.55
2018-12-10T00:09:31.075Z,1006.75
2018-12-10T00:10:11.502Z,1006.8
2018-12-10T00:10:51.920Z,1006.74
2018-12-10T00:11:32.402Z,1006.78
2018-12-10T00:12:12.723Z,1006.8
2018-12-10T00:12:53.206Z,1006.83
2018-12-10T00:13:33.638Z,1006.85
2018-12-10T00:14:14.005Z,1006.8
2018-12-10T00:14:54.440Z,1006.95
2018-12-10T00:15:34.833Z,1006.92
2018-12-10T00:16:15.222Z,1006.97
2018-12-10T00:16:55.582Z,1006.98
2018-12-10T00:17:36.001Z,1007.02
2018-12-10T00:18:16.385Z,1006.94
2018-12-10T00:18:56.793Z,1006.98
2018-12-10T00:19:37.219Z,1006.9
2018-12-10T00:20:17.621Z,1006.95
2018-12-10T00:20:58.062Z,1006.93
2018-12-10T00:21:38.440Z,1006.96
2018-12-10T00:22:18.840Z,1006.94
2018-12-10T00:22:59.354Z,1007
2018-12-10T00:23:39.650Z,1006.98
2018-12-10T00:24:20.046Z,1006.99
2018-12-10T00:25:00.476Z,1007.06
2018-12-10T00:25:40.910Z,1007.13
2018-12-10T00:26:21.246Z,1007.18
2018-12-10T00:27:01.615Z,1007.15
2018-12-10T00:27:42.015Z,1007.15
2018-12-10T00:28:22.406Z,1007.14
2018-12-10T00:29:02.810Z,1007.08
2018-12-10T00:29:43.215Z,1007.11
2018-12-10T00:30:23.579Z,1007.15
2018-12-10T00:31:03.987Z,1007.18
2018-12-10T00:31:44.390Z,1007.21
2018-12-10T00:32:24.850Z,1007.17
2018-12-10T00:34:22.302Z,1007.22
2018-12-10T00:35:02.944Z,1007.26
2018-12-10T00:35:43.346Z,1007.26
2018-12-10T00:36:23.767Z,1007.24
2018-12-10T00:37:04.135Z,1007.29
2018-12-10T00:37:44.526Z,1007.3
2018-12-10T00:38:24.936Z,1007.25
2018-12-10T00:39:05.369Z,1007.34
2018-12-10T00:39:45.753Z,1007.32
2018-12-10T00:40:26.246Z,1007.37
2018-12-10T00:41:06.614Z,1007.39
2018-12-10T00:41:47.000Z,1007.45
2018-12-10T00:42:27.390Z,1007.49
2018-12-10T00:43:07.793Z,1007.47
2018-12-10T00:43:48.159Z,1007.48
2018-12-10T00:44:28.558Z,1007.53
2018-12-10T00:45:08.949Z,1007.47
2018-12-10T00:45:49.365Z,1007.53
2018-12-10T00:46:29.779Z,1007.57
2018-12-10T00:47:10.239Z,1007.57
2018-12-10T00:47:50.636Z,1007.49
2018-12-10T00:48:31.068Z,1007.52
2018-12-10T00:49:11.493Z,1007.46
2018-12-10T00:49:51.953Z,1007.53
2018-12-10T00:50:32.378Z,1007.48
2018-12-10T00:51:12.769Z,1007.46
2018-12-10T00:51:53.167Z,1007.46
2018-12-10T00:52:33.684Z,1007.57
2018-12-10T00:53:14.057Z,1007.52
2018-12-10T00:53:54.469Z,1007.55
2018-12-10T00:54:34.854Z,1007.64
2018-12-10T00:55:15.281Z,1007.6
2018-12-10T00:55:55.694Z,1007.6
2018-12-10T00:56:36.059Z,1007.59
2018-12-10T00:57:16.469Z,1007.56
2018-12-10T00:57:56.863Z,1007.64
2018-12-10T00:58:37.310Z,1007.55
2018-12-10T00:59:17.689Z,1007.67
2018-12-10T00:59:58.135Z,1007.64
2018-12-10T01:00:38.497Z,1007.52
2018-12-10T01:01:18.906Z,1007.65
2018-12-10T01:01:59.311Z,1007.68
2018-12-10T01:02:39.758Z,1007.6
2018-12-10T01:03:20.156Z,1007.65
2018-12-10T01:04:00.574Z,1007.69
2018-12-10T01:04:40.991Z,1007.69
2018-12-10T01:05:21.391Z,1007.68
2018-12-10T01:06:01.812Z,1007.68
2018-12-10T01:06:42.239Z,1007.65
2018-12-10T01:07:22.650Z,1007.74
2018-12-10T01:08:03.033Z,1007.66
2018-12-10T01:08:43.465Z,1007.71
2018-12-10T01:09:23.885Z,1007.77
2018-12-10T01:10:04.234Z,1007.78
2018-12-10T01:10:44.629Z,1007.83
2018-12-10T01:11:24.985Z,1007.81
2018-12-10T01:13:17.393Z,1007.89
2018-12-10T01:13:57.798Z,1007.9
2018-12-10T01:14:38.212Z,1007.87
2018-12-10T01:15:18.642Z,1007.89
2018-12-10T01:15:59.034Z,1007.89
2018-12-10T01:18:08.085Z,1007.96
2018-12-10T01:19:02.075Z,1007.98
2018-12-10T01:19:58.264Z,1007.94
2018-12-10T01:23:31.630Z,1008.03
2018-12-10T01:27:56.480Z,1008.04
2018-12-10T01:28:37.581Z,1008.11
2018-12-10T01:29:18.003Z,1008.08
2018-12-10T01:29:58.369Z,1008.09
2018-12-10T01:30:38.735Z,1008.15
2018-12-10T01:31:19.163Z,1008.1
2018-12-10T01:31:59.545Z,1008.13
2018-12-10T01:32:39.947Z,1008.16
2018-12-10T01:33:20.355Z,1008.17
2018-12-10T01:34:00.739Z,1008.16
2018-12-10T01:36:14.454Z,1008.22
2018-12-10T01:36:55.050Z,1008.2
2018-12-10T01:37:35.214Z,1008.25
2018-12-10T01:38:15.651Z,1008.16
2018-12-10T01:38:56.015Z,1008.18
2018-12-10T01:39:36.440Z,1008.24
2018-12-10T01:40:16.826Z,1008.22
2018-12-10T01:40:57.211Z,1008.27
2018-12-10T01:41:37.746Z,1008.25
2018-12-10T01:42:18.068Z,1008.28
2018-12-10T01:42:58.494Z,1008.22
2018-12-10T01:43:38.900Z,1008.29
2018-12-10T01:44:19.289Z,1008.35
2018-12-10T01:44:59.728Z,1008.28
2018-12-10T01:45:40.103Z,1008.32
2018-12-10T01:46:20.485Z,1008.32
2018-12-10T01:47:00.863Z,1008.31
2018-12-10T01:49:29.755Z,1008.39
2018-12-10T01:50:10.117Z,1008.48
2018-12-10T01:50:50.573Z,1008.46
2018-12-10T01:51:30.972Z,1008.48
2018-12-10T01:52:11.390Z,1008.42
2018-12-10T01:54:09.024Z,1008.46
2018-12-10T01:54:49.377Z,1008.53
2018-12-10T01:55:29.765Z,1008.54
2018-12-10T01:56:10.160Z,1008.53
2018-12-10T01:58:22.774Z,1008.51
2018-12-10T01:59:03.010Z,1008.51
2018-12-10T01:59:43.649Z,1008.49
2018-12-10T02:00:24.104Z,1008.53
2018-12-10T02:01:04.471Z,1008.44
2018-12-10T02:01:44.857Z,1008.45
2018-12-10T02:02:25.250Z,1008.58
2018-12-10T02:03:05.720Z,1008.57
2018-12-10T02:03:46.067Z,1008.56
2018-12-10T02:04:26.455Z,1008.59
2018-12-10T02:05:07.041Z,1008.5
2018-12-10T02:05:47.457Z,1008.58
2018-12-10T02:06:27.867Z,1008.63
2018-12-10T02:07:08.227Z,1008.64
2018-12-10T02:07:48.635Z,1008.67
2018-12-10T02:08:29.047Z,1008.67
2018-12-10T02:09:09.444Z,1008.68
2018-12-10T02:09:49.848Z,1008.66
2018-12-10T02:10:30.221Z,1008.57
2018-12-10T02:11:10.776Z,1008.67
2018-12-10T02:11:50.991Z,1008.71
2018-12-10T02:12:31.407Z,1008.73
2018-12-10T02:13:11.783Z,1008.64
2018-12-10T02:13:52.201Z,1008.66
2018-12-10T02:14:32.617Z,1008.62
2018-12-10T02:15:13.013Z,1008.61
2018-12-10T02:15:53.428Z,1008.68
2018-12-10T02:16:33.863Z,1008.64
2018-12-10T02:17:14.230Z,1008.67
2018-12-10T02:17:54.639Z,1008.69
2018-12-10T02:18:35.016Z,1008.75
2018-12-10T02:19:15.413Z,1008.76
2018-12-10T02:21:28.309Z,1008.76
2018-12-10T02:22:08.644Z,1008.75
2018-12-10T02:22:49.054Z,1008.79
2018-12-10T02:23:29.469Z,1008.74
2018-12-10T02:24:09.825Z,1008.76
2018-12-10T02:24:50.237Z,1008.83
2018-12-10T02:25:30.639Z,1008.8
2018-12-10T02:26:11.095Z,1008.8
2018-12-10T02:26:51.450Z,1008.8
2018-12-10T02:27:31.886Z,1008.78
2018-12-10T02:28:12.248Z,1008.78
2018-12-10T02:28:52.663Z,1008.79
2018-12-10T02:29:33.123Z,1008.82
2018-12-10T02:30:13.488Z,1008.83
2018-12-10T02:30:53.943Z,1008.84
2018-12-10T02:31:34.314Z,1008.86
2018-12-10T02:32:14.739Z,1008.87
2018-12-10T02:32:55.137Z,1008.85
2018-12-10T02:33:35.513Z,1008.86
2018-12-10T02:34:15.935Z,1008.88
2018-12-10T02:34:56.304Z,1008.88
2018-12-10T02:37:24.987Z,1008.83
2018-12-10T02:38:18.154Z,1008.82
2018-12-10T02:39:15.525Z,1008.85
2018-12-10T02:40:14.182Z,1008.83
2018-12-10T02:41:08.469Z,1008.8
2018-12-10T02:42:02.903Z,1008.88
2018-12-10T02:42:55.101Z,1008.87
2018-12-10T02:45:01.573Z,1008.83
2018-12-10T02:45:41.954Z,1008.84
2018-12-10T02:46:22.311Z,1008.82
2018-12-10T02:47:02.753Z,1008.82
2018-12-10T02:47:43.153Z,1008.77
2018-12-10T02:48:23.661Z,1008.76
2018-12-10T02:49:04.159Z,1008.78
2018-12-10T02:49:44.556Z,1008.82
2018-12-10T02:50:24.952Z,1008.78
2018-12-10T02:51:05.368Z,1008.76
2018-12-10T02:53:20.232Z,1008.81
2018-12-10T02:54:00.428Z,1008.82
2018-12-10T02:54:40.839Z,1008.85
2018-12-10T02:55:21.356Z,1008.82
2018-12-10T02:56:01.646Z,1008.83
2018-12-10T02:56:42.056Z,1008.73
2018-12-10T02:57:22.450Z,1008.84
2018-12-10T02:58:02.857Z,1008.84
2018-12-10T02:58:43.276Z,1008.85
2018-12-10T02:59:23.667Z,1008.85
2018-12-10T03:00:04.110Z,1008.87
2018-12-10T03:00:44.519Z,1008.91
2018-12-10T03:01:24.907Z,1008.93
2018-12-10T03:02:05.321Z,1008.96
2018-12-10T03:02:45.732Z,1008.89
2018-12-10T03:03:26.137Z,1008.97
2018-12-10T03:04:06.521Z,1008.97
2018-12-10T03:04:46.924Z,1009.03
2018-12-10T03:05:27.322Z,1009.01
2018-12-10T03:06:07.752Z,1008.98
2018-12-10T03:06:48.141Z,1009.01
2018-12-10T03:07:28.606Z,1009.01
2018-12-10T03:08:09.004Z,1009.01
2018-12-10T03:08:49.378Z,1008.98
2018-12-10T03:09:29.973Z,1009.03
2018-12-10T03:10:10.428Z,1009.02
2018-12-10T03:10:50.857Z,1009.04
2018-12-10T03:11:31.268Z,1009.01
2018-12-10T03:12:11.706Z,1009.09
2018-12-10T03:12:52.156Z,1009.04
2018-12-10T03:13:32.553Z,1009.03
2018-12-10T03:17:38.502Z,1009.06
2018-12-10T03:18:19.204Z,1009.06
2018-12-10T03:18:59.656Z,1009.06
2018-12-10T03:19:40.023Z,1009.11
2018-12-10T03:20:20.427Z,1009.14
2018-12-10T03:21:00.966Z,1009.11
2018-12-10T03:21:41.409Z,1009.12
2018-12-10T03:22:21.834Z,1009.07
2018-12-10T03:24:45.288Z,1009.12
2018-12-10T03:25:43.382Z,1009.04
2018-12-10T03:27:35.065Z,1009.13
2018-12-10T03:28:15.456Z,1009.1
2018-12-10T03:28:55.860Z,1009.13
2018-12-10T03:29:36.261Z,1009.15
2018-12-10T03:30:16.683Z,1009.11
2018-12-10T03:30:57.092Z,1009.2
2018-12-10T03:33:25.126Z,1009.18
2018-12-10T03:34:05.473Z,1009.18
2018-12-10T03:34:45.900Z,1009.17
2018-12-10T03:35:26.279Z,1009.2
2018-12-10T03:36:06.704Z,1009.17
2018-12-10T03:36:47.121Z,1009.17
2018-12-10T03:37:27.496Z,1009.2
2018-12-10T03:38:07.880Z,1009.21
2018-12-10T03:38:48.298Z,1009.16
2018-12-10T03:39:28.677Z,1009.12
2018-12-10T03:40:09.262Z,1009.17
2018-12-10T03:40:49.711Z,1009.2
2018-12-10T03:41:30.131Z,1009.16
2018-12-10T03:42:10.546Z,1009.16
2018-12-10T03:42:50.898Z,1009.15
2018-12-10T03:45:29.276Z,1009.14
2018-12-10T03:46:23.766Z,1009.16
2018-12-10T03:47:25.743Z,1009.1
2018-12-10T03:48:18.983Z,1009.13
2018-12-10T03:49:12.854Z,1009.13
2018-12-10T03:50:08.695Z,1009.16
2018-12-10T03:51:06.152Z,1009.17
2018-12-10T03:51:58.720Z,1009.22
2018-12-10T03:54:37.285Z,1009.25
2018-12-10T03:55:17.682Z,1009.19
2018-12-10T03:55:58.045Z,1009.25
2018-12-10T03:56:38.446Z,1009.3
2018-12-10T03:58:33.225Z,1009.32
2018-12-10T03:59:13.729Z,1009.27
2018-12-10T03:59:54.105Z,1009.2
2018-12-10T04:00:34.506Z,1009.32
2018-12-10T04:01:14.918Z,1009.26
2018-12-10T04:03:23.125Z,1009.35
2018-12-10T04:04:15.008Z,1009.39
2018-12-10T04:05:07.477Z,1009.37
2018-12-10T04:07:07.915Z,1009.31
2018-12-10T04:07:48.222Z,1009.39
2018-12-10T04:08:28.752Z,1009.32
2018-12-10T04:09:09.133Z,1009.29
2018-12-10T04:12:09.344Z,1009.43
2018-12-10T04:12:49.749Z,1009.53
2018-12-10T04:13:30.126Z,1009.45
2018-12-10T04:14:10.544Z,1009.4
2018-12-10T04:14:50.938Z,1009.41
2018-12-10T04:15:31.348Z,1009.46
2018-12-10T04:16:11.768Z,1009.4
2018-12-10T04:16:52.249Z,1009.4
2018-12-10T04:17:32.518Z,1009.35
2018-12-10T04:18:12.930Z,1009.38
2018-12-10T04:18:53.355Z,1009.35
2018-12-10T04:19:33.760Z,1009.31
2018-12-10T04:21:51.275Z,1009.35
2018-12-10T04:22:31.685Z,1009.41
2018-12-10T04:23:12.071Z,1009.39
2018-12-10T04:23:52.486Z,1009.42
2018-12-10T04:24:32.867Z,1009.42
2018-12-10T04:25:13.269Z,1009.42
2018-12-10T04:27:26.147Z,1009.42
2018-12-10T05:06:20.366Z,1009.88
2018-12-10T05:07:00.695Z,1009.76
2018-12-10T05:07:41.104Z,1009.88
2018-12-10T05:08:21.489Z,1009.9
2018-12-10T05:09:01.908Z,1009.98
2018-12-10T05:09:42.331Z,1009.95
2018-12-10T05:10:22.709Z,1010.06
2018-12-10T05:11:03.175Z,1010.04
2018-12-10T05:11:43.559Z,1009.77
2018-12-10T05:12:24.027Z,1009.98
2018-12-10T05:13:04.503Z,1009.97
2018-12-10T05:13:45.225Z,1009.93
2018-12-10T05:14:25.567Z,1010.01
2018-12-10T05:15:06.004Z,1010.01
2018-12-10T05:15:46.390Z,1010.05
2018-12-10T05:16:26.799Z,1010.05
2018-12-10T05:17:07.209Z,1010.08
2018-12-10T05:17:47.641Z,1010.07
2018-12-10T05:18:28.011Z,1010.12
2018-12-10T05:19:08.409Z,1010.11
2018-12-10T05:19:48.796Z,1010.08
2018-12-10T05:21:57.189Z,1010.13
2018-12-10T05:24:51.971Z,1010.06
2018-12-10T05:27:21.087Z,1010.09
2018-12-10T05:28:01.974Z,1010.07
2018-12-10T05:28:42.393Z,1010.07
2018-12-10T05:30:39.872Z,1010.1
2018-12-10T05:31:20.272Z,1010.11
2018-12-10T05:32:00.704Z,1010.07
2018-12-10T05:32:41.108Z,1010.15
2018-12-10T05:33:21.532Z,1010.12
2018-12-10T05:34:01.876Z,1010.14
2018-12-10T05:34:42.277Z,1010.1
2018-12-10T05:35:22.700Z,1010.1
2018-12-10T05:36:03.128Z,1010.04
2018-12-10T05:39:57.757Z,1010.09
2018-12-10T05:40:55.006Z,1010.09
2018-12-10T05:42:03.382Z,1010.07
2018-12-10T05:42:57.742Z,1010.07
2018-12-10T05:43:52.053Z,1010.07
2018-12-10T05:44:50.288Z,1010.1
2018-12-10T05:45:45.840Z,1010.1
2018-12-10T05:46:41.681Z,1010.21
2018-12-10T05:47:37.777Z,1010.1
2018-12-10T05:48:33.493Z,1010.14
2018-12-10T05:49:37.888Z,1010.18
2018-12-10T05:52:16.988Z,1010.23
2018-12-10T05:52:57.630Z,1010.19
2018-12-10T05:53:37.840Z,1010.28
2018-12-10T05:54:18.281Z,1010.22
2018-12-10T05:54:58.693Z,1010.31
2018-12-10T05:55:39.105Z,1010.09
2018-12-10T05:56:19.544Z,1010.35
2018-12-10T05:56:59.935Z,1010.41
2018-12-10T05:57:40.404Z,1010.39
2018-12-10T05:58:20.868Z,1010.4
2018-12-10T05:59:01.254Z,1010.41
2018-12-10T05:59:41.690Z,1010.44
2018-12-10T06:00:22.078Z,1010.43
2018-12-10T06:01:02.452Z,1010.49
2018-12-10T06:01:42.873Z,1010.5
2018-12-10T06:02:23.307Z,1010.48
2018-12-10T06:03:03.710Z,1010.46
2018-12-10T06:03:44.136Z,1010.52
2018-12-10T06:04:24.549Z,1010.52
2018-12-10T06:05:05.161Z,1010.44
2018-12-10T06:05:45.606Z,1010.49
2018-12-10T06:08:05.155Z,1010.42
2018-12-10T06:08:45.666Z,1010.47
2018-12-10T06:09:26.057Z,1010.49
2018-12-10T06:10:06.500Z,1010.52
2018-12-10T06:10:46.938Z,1010.45
2018-12-10T06:11:27.338Z,1010.52
2018-12-10T06:12:07.718Z,1010.37
2018-12-10T06:12:48.212Z,1010.49
2018-12-10T06:13:28.598Z,1010.42
2018-12-10T06:14:09.006Z,1010.45
2018-12-10T06:14:49.458Z,1010.54
2018-12-10T06:15:29.862Z,1010.44
2018-12-10T06:17:47.590Z,1010.53
2018-12-10T06:18:28.158Z,1010.41
2018-12-10T06:19:08.577Z,1010.52
2018-12-10T06:19:48.981Z,1010.59
2018-12-10T06:20:29.380Z,1010.59
2018-12-10T06:21:09.782Z,1010.6
2018-12-10T06:21:50.374Z,1010.62
2018-12-10T06:22:30.680Z,1010.64
2018-12-10T06:23:11.266Z,1010.55
2018-12-10T06:23:51.651Z,1010.63
2018-12-10T06:24:32.056Z,1010.63
2018-12-10T06:25:12.507Z,1010.6
2018-12-10T06:25:52.910Z,1010.73
2018-12-10T06:26:33.302Z,1010.69
2018-12-10T06:27:13.737Z,1010.61
2018-12-10T06:27:54.157Z,1010.65
2018-12-10T06:28:34.577Z,1010.73
2018-12-10T06:29:14.971Z,1010.7
2018-12-10T06:29:55.357Z,1010.74
2018-12-10T06:30:35.744Z,1010.72
2018-12-10T06:31:16.153Z,1010.7
2018-12-10T06:31:56.684Z,1010.68
2018-12-10T06:34:44.825Z,1010.76
2018-12-10T06:36:45.983Z,1010.79
2018-12-10T06:37:26.434Z,1010.74
2018-12-10T06:38:06.829Z,1010.77
2018-12-10T06:38:47.217Z,1010.7
2018-12-10T06:39:27.857Z,1010.82
2018-12-10T06:40:11.433Z,1010.87
2018-12-10T06:40:51.039Z,1010.88
2018-12-10T06:41:31.966Z,1010.85
2018-12-10T06:42:12.533Z,1010.83
2018-12-10T06:42:52.858Z,1010.84
2018-12-10T06:43:33.281Z,1010.84
2018-12-10T06:44:13.774Z,1010.87
2018-12-10T06:44:54.200Z,1010.94
2018-12-10T06:45:34.600Z,1010.84
2018-12-10T06:46:15.050Z,1010.93
2018-12-10T06:46:55.428Z,1010.91
2018-12-10T06:47:36.012Z,1010.89
2018-12-10T06:48:16.517Z,1010.93
2018-12-10T06:48:56.967Z,1010.91
2018-12-10T06:49:37.471Z,1010.98
2018-12-10T06:50:17.961Z,1010.98
2018-12-10T06:50:58.915Z,1011
2018-12-10T06:51:41.310Z,1010.95
2018-12-10T06:52:22.205Z,1010.91
2018-12-10T06:53:02.701Z,1010.97
2018-12-10T06:53:42.572Z,1010.97
2018-12-10T06:54:23.070Z,1010.95
2018-12-10T06:55:04.671Z,1010.99
2018-12-10T06:55:45.426Z,1011.04
2018-12-10T06:57:43.452Z,1011.03
2018-12-10T06:58:23.949Z,1010.95
2018-12-10T06:59:04.530Z,1011.03
2018-12-10T06:59:45.005Z,1011.06
2018-12-10T07:00:25.726Z,1011.03
2018-12-10T07:01:07.067Z,1011.05
2018-12-10T07:01:47.477Z,1011.02
2018-12-10T07:02:28.499Z,1011.02
2018-12-10T07:03:09.456Z,1011.06
2018-12-10T07:03:50.214Z,1011.03
2018-12-10T07:04:31.586Z,1011.04
2018-12-10T07:05:12.992Z,1010.99
2018-12-10T07:05:53.593Z,1011
2018-12-10T07:06:34.362Z,1011
2018-12-10T07:07:15.407Z,1011.05
2018-12-10T07:07:56.222Z,1011.08
2018-12-10T07:08:37.382Z,1011.03
2018-12-10T07:09:18.226Z,1011
2018-12-10T07:09:59.483Z,1011.01
2018-12-10T07:10:39.495Z,1011.03
2018-12-10T07:11:20.000Z,1011
2018-12-10T07:12:00.562Z,1010.91
2018-12-10T07:12:41.464Z,1011.01
2018-12-10T07:13:22.168Z,1011.04
2018-12-10T07:14:03.875Z,1011.1
2018-12-10T07:14:44.285Z,1011.1
2018-12-10T07:15:24.862Z,1011.11
2018-12-10T07:16:06.425Z,1011.05
2018-12-10T07:16:47.240Z,1011.1
2018-12-10T07:17:27.810Z,1011.12
2018-12-10T07:18:08.811Z,1011.1
2018-12-10T07:18:49.747Z,1011.12
2018-12-10T07:19:30.794Z,1011.15
2018-12-10T07:20:11.650Z,1011.17
2018-12-10T07:20:51.767Z,1011.14
2018-12-10T07:21:32.640Z,1011.1
2018-12-10T07:22:13.993Z,1011.06
2018-12-10T07:22:54.510Z,1011.1
2018-12-10T07:23:34.424Z,1011.09
2018-12-10T07:24:15.195Z,1011.04
2018-12-10T07:24:55.764Z,1011.03
2018-12-10T07:25:36.264Z,1011.05
2018-12-10T07:26:17.248Z,1011.07
2018-12-10T07:28:14.780Z,1011.18
2018-12-10T07:28:55.482Z,1011.16
2018-12-10T07:29:36.361Z,1011.16
2018-12-10T07:30:17.528Z,1011.16
2018-12-10T07:30:58.984Z,1011.2
2018-12-10T07:31:39.033Z,1011.2
2018-12-10T07:32:19.812Z,1011.18
2018-12-10T07:33:00.486Z,1011.22
2018-12-10T07:33:40.967Z,1011.22
2018-12-10T07:34:21.491Z,1011.18
2018-12-10T07:35:02.985Z,1011.2
2018-12-10T07:35:43.977Z,1011.22
2018-12-10T07:36:24.042Z,1011.18
2018-12-10T07:37:04.540Z,1011.23
2018-12-10T07:37:45.492Z,1011.29
2018-12-10T07:38:26.472Z,1011.27
2018-12-10T07:39:06.762Z,1011.27
2018-12-10T07:39:47.512Z,1011.27
2018-12-10T07:40:27.891Z,1011.27
2018-12-10T07:41:08.541Z,1011.33
2018-12-10T07:41:49.117Z,1011.28
2018-12-10T07:42:29.940Z,1011.33
2018-12-10T07:43:10.367Z,1011.32
2018-12-10T07:43:51.342Z,1011.41
2018-12-10T07:44:32.066Z,1011.39
2018-12-10T07:45:12.481Z,1011.36
2018-12-10T07:45:52.984Z,1011.36
2018-12-10T07:46:34.222Z,1011.38
2018-12-10T07:47:14.811Z,1011.35
2018-12-10T07:47:56.407Z,1011.36
2018-12-10T07:50:08.993Z,1011.36
2018-12-10T07:50:49.976Z,1011.25
2018-12-10T07:51:30.018Z,1011.31
2018-12-10T07:52:10.540Z,1011.37
2018-12-10T07:52:51.978Z,1011.36
2018-12-10T07:53:31.929Z,1011.35
2018-12-10T07:54:13.506Z,1011.41
2018-12-10T07:54:53.552Z,1011.4
2018-12-10T07:55:34.247Z,1011.4
2018-12-10T07:56:15.073Z,1011.44
2018-12-10T07:56:57.570Z,1011.44
2018-12-10T07:57:39.173Z,1011.5
2018-12-10T07:58:19.362Z,1011.5
2018-12-10T07:59:00.044Z,1011.48
2018-12-10T07:59:41.494Z,1011.48
2018-12-10T08:00:22.102Z,1011.46
2018-12-10T08:02:50.477Z,1011.47
2018-12-10T08:03:32.187Z,1011.41
2018-12-10T08:04:11.861Z,1011.48
2018-12-10T08:04:53.002Z,1011.49
2018-12-10T08:05:33.477Z,1011.53
2018-12-10T08:06:14.968Z,1011.57
2018-12-10T08:06:58.009Z,1011.52
2018-12-10T08:07:40.446Z,1011.54
2018-12-10T08:08:21.792Z,1011.5
2018-12-10T08:09:02.227Z,1011.44
2018-12-10T08:09:43.895Z,1011.49
2018-12-10T08:10:32.745Z,1011.56
2018-12-10T08:11:13.716Z,1011.56
2018-12-10T08:11:54.084Z,1011.57
2018-12-10T08:12:35.885Z,1011.57
2018-12-10T08:13:16.110Z,1011.56
2018-12-10T08:13:57.268Z,1011.6
2018-12-10T08:14:37.515Z,1011.53
2018-12-10T08:15:17.974Z,1011.59
2018-12-10T08:15:58.639Z,1011.59
2018-12-10T08:16:39.636Z,1011.49
2018-12-10T08:17:20.168Z,1011.57
2018-12-10T08:18:00.608Z,1011.55
2018-12-10T08:18:41.183Z,1011.59
2018-12-10T08:19:22.203Z,1011.64
2018-12-10T08:20:02.846Z,1011.64
2018-12-10T08:20:43.529Z,1011.67
2018-12-10T08:21:24.238Z,1011.66
2018-12-10T08:22:05.496Z,1011.6
2018-12-10T08:22:46.318Z,1011.64
2018-12-10T08:23:27.200Z,1011.65
2018-12-10T08:24:07.711Z,1011.65
2018-12-10T08:24:49.709Z,1011.64
2018-12-10T08:25:29.954Z,1011.65
2018-12-10T08:26:11.173Z,1011.7
2018-12-10T08:26:51.680Z,1011.66
2018-12-10T08:27:32.262Z,1011.62
2018-12-10T08:28:14.459Z,1011.63
2018-12-10T08:28:58.576Z,1011.63
2018-12-10T08:29:35.099Z,1011.63
2018-12-10T08:30:15.680Z,1011.61
2018-12-10T08:30:56.389Z,1011.68
2018-12-10T08:31:37.656Z,1011.63
2018-12-10T08:32:18.195Z,1011.71
2018-12-10T08:32:58.634Z,1011.73
2018-12-10T08:33:39.981Z,1011.72
2018-12-10T08:34:21.448Z,1011.72
2018-12-10T08:35:01.488Z,1011.81
2018-12-10T08:35:42.906Z,1011.78
2018-12-10T08:36:23.126Z,1011.83
2018-12-10T08:37:04.740Z,1011.82
2018-12-10T08:37:44.834Z,1011.87
2018-12-10T08:38:25.592Z,1011.88
2018-12-10T08:39:07.197Z,1011.86
2018-12-10T08:39:47.310Z,1011.9
2018-12-10T08:40:27.860Z,1011.84
2018-12-10T08:41:08.823Z,1011.89
2018-12-10T08:41:51.073Z,1011.89
2018-12-10T08:42:31.597Z,1011.91
2018-12-10T08:43:12.552Z,1011.93
2018-12-10T08:43:53.962Z,1011.99
2018-12-10T08:44:35.212Z,1011.91
2018-12-10T08:45:15.535Z,1011.95
2018-12-10T08:45:56.100Z,1012
2018-12-10T08:46:38.373Z,1011.9
2018-12-10T08:47:18.563Z,1012
2018-12-10T08:47:59.470Z,1011.97
2018-12-10T08:48:40.836Z,1011.99
2018-12-10T08:49:20.663Z,1012.05
2018-12-10T08:50:01.328Z,1012.08
2018-12-10T08:50:42.713Z,1011.99
2018-12-10T08:51:22.626Z,1012.03
2018-12-10T08:52:03.847Z,1011.88
2018-12-10T08:52:44.535Z,1012.01
2018-12-10T08:53:26.226Z,1012.02
2018-12-10T08:54:06.075Z,1011.98
2018-12-10T08:54:46.818Z,1011.98
2018-12-10T08:55:28.289Z,1012.01
2018-12-10T08:56:08.583Z,1011.93
2018-12-10T08:56:49.239Z,1011.94
2018-12-10T08:57:30.098Z,1011.91
2018-12-10T08:58:12.398Z,1011.95
2018-12-10T08:58:54.245Z,1011.9
2018-12-10T08:59:35.725Z,1011.88
2018-12-10T09:00:16.905Z,1011.9
2018-12-10T09:00:56.832Z,1011.95
2018-12-10T09:01:37.857Z,1011.81
2018-12-10T09:02:18.664Z,1012
2018-12-10T09:03:00.230Z,1011.91
2018-12-10T09:03:40.498Z,1012
2018-12-10T09:04:21.122Z,1011.96
2018-12-10T09:05:01.650Z,1012
2018-12-10T09:05:42.307Z,1012.03
2018-12-10T09:06:22.918Z,1012.01
2018-12-10T09:07:04.717Z,1012.01
2018-12-10T09:07:45.173Z,1012.03
2018-12-10T09:08:25.824Z,1012
2018-12-10T09:09:07.103Z,1012
2018-12-10T09:09:47.665Z,1011.89
2018-12-10T09:10:28.081Z,1012.01
2018-12-10T09:11:08.874Z,1012.01
2018-12-10T09:13:58.540Z,1011.95
2018-12-10T09:15:51.221Z,1012
2018-12-10T09:16:32.766Z,1012.06
2018-12-10T09:17:13.779Z,1012.09
2018-12-10T09:17:54.003Z,1012.06
2018-12-10T09:18:35.771Z,1012.08
2018-12-10T09:19:15.670Z,1012.12
2018-12-10T09:19:56.777Z,1012.13
2018-12-10T09:20:37.313Z,1012.18
2018-12-10T09:21:18.286Z,1012.16
2018-12-10T09:21:59.765Z,1012.18
2018-12-10T09:22:39.950Z,1012.15
2018-12-10T09:23:21.019Z,1012.16
2018-12-10T09:24:01.714Z,1012.17
2018-12-10T09:24:42.448Z,1012.2
2018-12-10T09:25:24.542Z,1012.21
2018-12-10T09:26:04.031Z,1012.19
2018-12-10T09:26:44.549Z,1012.19
2018-12-10T09:27:25.421Z,1012.18
2018-12-10T09:28:06.138Z,1012.24
2018-12-10T09:28:46.621Z,1012.14
2018-12-10T09:29:27.198Z,1012.09
2018-12-10T09:30:07.773Z,1012.24
2018-12-10T09:30:48.288Z,1012.22
2018-12-10T09:31:28.981Z,1012.2
2018-12-10T09:32:09.678Z,1012.16
2018-12-10T09:36:29.597Z,1012.29
2018-12-10T09:38:28.375Z,1012.33
2018-12-10T09:39:09.872Z,1012.36
2018-12-10T09:39:49.955Z,1012.3
2018-12-10T09:40:30.388Z,1012.3
2018-12-10T09:41:11.052Z,1012.38
2018-12-10T09:41:52.408Z,1012.29
2018-12-10T09:42:33.048Z,1012.23
2018-12-10T09:43:14.376Z,1012.34
2018-12-10T09:43:54.894Z,1012.29
2018-12-10T09:44:34.867Z,1012.3
2018-12-10T09:45:15.638Z,1012.26
2018-12-10T09:45:56.989Z,1012.35
2018-12-10T09:46:37.595Z,1012.23
2018-12-10T09:47:18.107Z,1012.32
2018-12-10T09:47:59.332Z,1012.34
2018-12-10T09:48:40.931Z,1012.37
2018-12-10T09:49:20.849Z,1012.41
2018-12-10T09:50:02.545Z,1012.36
2018-12-10T09:50:42.628Z,1012.28
2018-12-10T09:51:23.453Z,1012.36
2018-12-10T09:52:05.097Z,1012.34
2018-12-10T09:52:44.805Z,1012.37
2018-12-10T09:53:26.375Z,1012.33
2018-12-10T09:54:06.248Z,1012.32
2018-12-10T09:54:47.780Z,1012.28
2018-12-10T09:55:28.883Z,1012.38
2018-12-10T09:56:08.939Z,1012.35
2018-12-10T09:56:50.402Z,1012.36
2018-12-10T09:57:30.416Z,1012.34
2018-12-10T09:58:11.732Z,1012.31
2018-12-10T09:58:52.292Z,1012.28
2018-12-10T09:59:33.463Z,1012.15
2018-12-10T10:00:13.928Z,1012.33
2018-12-10T10:00:54.740Z,1012.21
2018-12-10T10:01:35.259Z,1012.28
2018-12-10T10:02:16.109Z,1012.25
2018-12-10T10:02:56.771Z,1012.28
2018-12-10T10:03:37.254Z,1012.27
2018-12-10T10:04:19.413Z,1012.25
2018-12-10T10:04:59.852Z,1012.33
2018-12-10T10:05:40.498Z,1012.31
2018-12-10T10:06:21.203Z,1012.36
2018-12-10T10:07:02.251Z,1012.38
2018-12-10T10:07:43.488Z,1012.33
2018-12-10T10:08:23.891Z,1012.29
2018-12-10T10:09:04.490Z,1012.3
2018-12-10T10:09:45.460Z,1012.29
2018-12-10T10:10:26.382Z,1012.37
2018-12-10T10:11:06.570Z,1012.4
2018-12-10T10:11:47.105Z,1012.34
2018-12-10T10:12:28.497Z,1012.4
2018-12-10T10:13:08.586Z,1012.41
2018-12-10T10:13:49.239Z,1012.43
2018-12-10T10:14:30.939Z,1012.45
2018-12-10T10:15:11.370Z,1012.46
2018-12-10T10:15:52.141Z,1012.38
2018-12-10T10:16:33.107Z,1012.46